PBM weather

Johan Adolf Pengel International Airport
Zandery, Para, Suriname

Public forecast

Using degrees Celsius for public forecast. Weather courtesy of forecast.io.

Current aviation weather report (METAR) for Johan Adolf Pengel International Airport

Retrieved 2020/05/29 12:00 UTC (33 minutes ago):

SMJP 291200Z 11004KT 080V140 9999 FEW004 BKN035 25/23 Q1014 NOSIG

Aviation forecast (TAF) for Johan Adolf Pengel International Airport

Retrieved 2020/05/29 12:18 UTC (15 minutes ago):

TAF SMJP 291000Z 2912/3012 07006KT 9999 SCT025 TX30/2918Z TN23/3007Z TEMPO 2914/2921 5000 SHRA FEW015TCU SCT020 PROB40 TEMPO 2914/2917 VRB06G18KT 1500 +SHRA FEW015CB BKN018